Webster, Florida
Current Conditions -  °F | °C
As of 10:53 AM on Thursday 30 Oct 2014 (Local Time) from KLEE Reporting Station
Scattered Clouds Scattered Clouds  
Wind Chill: 77°   Ceiling: Unl
Heat Index: 79°   Visibility: 10mi
Dew Point: 65°   Wind: 0mph
Humidity: 66%   Direction: NA
Pressure: 30.01"   Gusts: NA
Location:  28.61°N, 82.06°W
Report Text: KLEE 301453Z 00000KT 10SM SCT120 25/18 A3001 RMK AO2 SLP159 T02500183 51006
Loading
Personal Weather Stations






























Interactive Weather Map
Tropical Storm Tracking
New forecast layout! Learn more

10-Day Weather Forecast

Advertisements
Track Severe Weather on mobile